Burleson, TX

2:47 PM CST on January 25, 2015 (GMT -0600)
Tarrant/Johnson Co. Line | Change Station
CLOSE
Current Station
Personal Weather Station
Location: Burleson, TX
Elevation: 680 ft
Nearby Weather Stations

Elev 680 ft 32.57 °N, 97.27 °W | Updated 33 seconds ago

Clear
Clear
63.7 °F
Feels Like 63.7 °F
N
10.0
Wind Variable Wind from NW
Gusts 24.0 mph

Today
High -- | Low -- °F
--% Chance of Precip.
Yesterday
High -- | Low -- °F
Precip. -- in
7:27 AM 5:55 PM
Waxing Crescent, 35% visible
Pressure 30.07 in
Visibility 10.0 miles
Clouds Clear
Dew Point 25 °F
Humidity 23%
Rainfall 0.00 in
Snow Depth Not available.
UV 4 out of 12
Pollen 8.20 out of 12
Air Quality Not available.
Flu Activity Not available.
METAR KCPT 252035Z AUTO 32020KT 10SM CLR 19/M06 A3007 RMK AO2

More Conditions Fewer Conditions

Pressure 30.07 in
Visibility 10.0 miles
Clouds Clear
Dew Point 25 °F
Humidity 23%
Rainfall 0.00 in
Snow Depth Not available.
UV 4 out of 12
Pollen 8.20 out of 12
Air Quality Not available.
Flu Activity Not available.
METAR KCPT 252035Z AUTO 32020KT 10SM CLR 19/M06 A3007 RMK AO2

More Conditions Fewer Conditions

10-Day Weather Forecast

Almanac

Astronomy

Jan. 25, 2015 Rise Set
Actual Time
Civil Twilight
Nautical Twilight
Astronomical Twilight
Moon
Length of Visible Light
Length of Day
Tomorrow will be .
, % of the Moon is Illuminated

Today's Extremes

State Highs State Lows

Community

WunderPhotos

Upload Photos

1,790,041 photos uploaded!

WunderBlogs® & News

Nearby

Air Quality

  Air Quality AQ Index Pollutant
Not available.

Snow Depth

Station Depth Elevation

Earthquake Activity

City Distance Mag. Time & Date
Minimum magnitude displayed is 2.5.

Coastal Water Temperatures

Place Temperature

Nearby Weather Stations